sensor_id;sensor_type;location;lat;lon;timestamp;pressure;altitude;pressure_sealevel;temperature
20733;BMP180;10527;52.124;5.196;2023-03-01T00:01:52;103069.00;;;12.90
20733;BMP180;10527;52.124;5.196;2023-03-01T00:04:28;103082.00;;;12.90
20733;BMP180;10527;52.124;5.196;2023-03-01T00:06:55;103076.00;;;12.90
20733;BMP180;10527;52.124;5.196;2023-03-01T00:09:22;103071.00;;;12.80
20733;BMP180;10527;52.124;5.196;2023-03-01T00:11:49;103071.00;;;12.80
20733;BMP180;10527;52.124;5.196;2023-03-01T00:14:16;103079.00;;;12.80
20733;BMP180;10527;52.124;5.196;2023-03-01T00:16:45;103073.00;;;12.80
20733;BMP180;10527;52.124;5.196;2023-03-01T00:19:16;103074.00;;;12.80
20733;BMP180;10527;52.124;5.196;2023-03-01T00:21:43;103072.00;;;12.70
20733;BMP180;10527;52.124;5.196;2023-03-01T00:24:13;103059.00;;;12.70
20733;BMP180;10527;52.124;5.196;2023-03-01T00:26:40;103070.00;;;12.70
20733;BMP180;10527;52.124;5.196;2023-03-01T00:29:07;103076.00;;;12.70
20733;BMP180;10527;52.124;5.196;2023-03-01T00:31:40;103071.00;;;12.70
20733;BMP180;10527;52.124;5.196;2023-03-01T00:34:07;103063.00;;;12.70
20733;BMP180;10527;52.124;5.196;2023-03-01T00:36:38;103060.00;;;12.70
20733;BMP180;10527;52.124;5.196;2023-03-01T00:39:12;103057.00;;;12.60
20733;BMP180;10527;52.124;5.196;2023-03-01T00:41:45;103062.00;;;12.60
20733;BMP180;10527;52.124;5.196;2023-03-01T00:44:12;103053.00;;;12.50
20733;BMP180;10527;52.124;5.196;2023-03-01T00:46:39;103055.00;;;12.50
20733;BMP180;10527;52.124;5.196;2023-03-01T00:49:06;103060.00;;;12.50
20733;BMP180;10527;52.124;5.196;2023-03-01T00:51:35;103054.00;;;12.50
20733;BMP180;10527;52.124;5.196;2023-03-01T00:54:02;103058.00;;;12.50
20733;BMP180;10527;52.124;5.196;2023-03-01T00:56:30;103052.00;;;12.40
20733;BMP180;10527;52.124;5.196;2023-03-01T00:58:58;103055.00;;;12.40
20733;BMP180;10527;52.124;5.196;2023-03-01T01:01:28;103053.00;;;12.40
20733;BMP180;10527;52.124;5.196;2023-03-01T01:04:04;103055.00;;;12.40
20733;BMP180;10527;52.124;5.196;2023-03-01T01:06:39;103048.00;;;12.40
20733;BMP180;10527;52.124;5.196;2023-03-01T01:09:07;103049.00;;;12.30
20733;BMP180;10527;52.124;5.196;2023-03-01T01:11:35;103045.00;;;12.30
20733;BMP180;10527;52.124;5.196;2023-03-01T01:14:06;103044.00;;;12.30
20733;BMP180;10527;52.124;5.196;2023-03-01T01:16:39;103038.00;;;12.30
20733;BMP180;10527;52.124;5.196;2023-03-01T01:19:06;103036.00;;;12.30
20733;BMP180;10527;52.124;5.196;2023-03-01T01:21:33;103037.00;;;12.30
20733;BMP180;10527;52.124;5.196;2023-03-01T01:24:00;103029.00;;;12.20
20733;BMP180;10527;52.124;5.196;2023-03-01T01:26:33;103018.00;;;12.20
20733;BMP180;10527;52.124;5.196;2023-03-01T01:29:03;103022.00;;;12.20
20733;BMP180;10527;52.124;5.196;2023-03-01T01:31:33;103022.00;;;12.20
20733;BMP180;10527;52.124;5.196;2023-03-01T01:34:07;103020.00;;;12.10
20733;BMP180;10527;52.124;5.196;2023-03-01T01:36:34;103024.00;;;12.10
20733;BMP180;10527;52.124;5.196;2023-03-01T01:39:02;103007.00;;;12.10
20733;BMP180;10527;52.124;5.196;2023-03-01T01:41:30;103008.00;;;12.10
20733;BMP180;10527;52.124;5.196;2023-03-01T01:46:44;103002.00;;;12.00
20733;BMP180;10527;52.124;5.196;2023-03-01T01:49:37;103005.00;;;12.00
20733;BMP180;10527;52.124;5.196;2023-03-01T01:52:27;103012.00;;;12.00
20733;BMP180;10527;52.124;5.196;2023-03-01T01:55:02;103007.00;;;11.90
20733;BMP180;10527;52.124;5.196;2023-03-01T01:57:34;103011.00;;;11.90
20733;BMP180;10527;52.124;5.196;2023-03-01T02:00:09;103004.00;;;11.90
20733;BMP180;10527;52.124;5.196;2023-03-01T02:02:38;103003.00;;;11.90
20733;BMP180;10527;52.124;5.196;2023-03-01T02:07:59;102998.00;;;11.80
20733;BMP180;10527;52.124;5.196;2023-03-01T02:10:27;102998.00;;;11.80
20733;BMP180;10527;52.124;5.196;2023-03-01T02:12:55;102996.00;;;11.80
20733;BMP180;10527;52.124;5.196;2023-03-01T02:15:25;102991.00;;;11.80
20733;BMP180;10527;52.124;5.196;2023-03-01T02:17:54;102996.00;;;11.80
20733;BMP180;10527;52.124;5.196;2023-03-01T02:21:16;102994.00;;;11.80
20733;BMP180;10527;52.124;5.196;2023-03-01T02:23:43;102999.00;;;11.70
20733;BMP180;10527;52.124;5.196;2023-03-01T02:26:42;103001.00;;;11.70
20733;BMP180;10527;52.124;5.196;2023-03-01T02:29:11;102987.00;;;11.70
20733;BMP180;10527;52.124;5.196;2023-03-01T02:31:45;102985.00;;;11.60
20733;BMP180;10527;52.124;5.196;2023-03-01T02:34:24;102987.00;;;11.60
20733;BMP180;10527;52.124;5.196;2023-03-01T02:37:02;102988.00;;;11.60
20733;BMP180;10527;52.124;5.196;2023-03-01T02:39:40;102984.00;;;11.60
20733;BMP180;10527;52.124;5.196;2023-03-01T02:42:17;102980.00;;;11.60
20733;BMP180;10527;52.124;5.196;2023-03-01T02:44:45;102977.00;;;11.60
20733;BMP180;10527;52.124;5.196;2023-03-01T02:47:11;102974.00;;;11.50
20733;BMP180;10527;52.124;5.196;2023-03-01T02:49:38;102976.00;;;11.50
20733;BMP180;10527;52.124;5.196;2023-03-01T02:55:12;102964.00;;;11.50
20733;BMP180;10527;52.124;5.196;2023-03-01T02:57:44;102956.00;;;11.50
20733;BMP180;10527;52.124;5.196;2023-03-01T03:00:26;102961.00;;;11.50
20733;BMP180;10527;52.124;5.196;2023-03-01T03:02:55;102948.00;;;11.40
20733;BMP180;10527;52.124;5.196;2023-03-01T03:05:30;102956.00;;;11.40
20733;BMP180;10527;52.124;5.196;2023-03-01T03:08:02;102949.00;;;11.40
20733;BMP180;10527;52.124;5.196;2023-03-01T03:10:35;102949.00;;;11.40
20733;BMP180;10527;52.124;5.196;2023-03-01T03:13:06;102954.00;;;11.40
20733;BMP180;10527;52.124;5.196;2023-03-01T03:15:37;102956.00;;;11.40
20733;BMP180;10527;52.124;5.196;2023-03-01T03:18:12;102943.00;;;11.40
20733;BMP180;10527;52.124;5.196;2023-03-01T03:20:41;102954.00;;;11.30
20733;BMP180;10527;52.124;5.196;2023-03-01T03:23:09;102947.00;;;11.30
20733;BMP180;10527;52.124;5.196;2023-03-01T03:25:36;102950.00;;;11.30
20733;BMP180;10527;52.124;5.196;2023-03-01T03:28:06;102940.00;;;11.30
20733;BMP180;10527;52.124;5.196;2023-03-01T03:30:41;102934.00;;;11.30
20733;BMP180;10527;52.124;5.196;2023-03-01T03:33:10;102929.00;;;11.30
20733;BMP180;10527;52.124;5.196;2023-03-01T03:35:46;102930.00;;;11.30
20733;BMP180;10527;52.124;5.196;2023-03-01T03:38:17;102926.00;;;11.20
20733;BMP180;10527;52.124;5.196;2023-03-01T03:40:59;102933.00;;;11.20
20733;BMP180;10527;52.124;5.196;2023-03-01T03:43:39;102932.00;;;11.20
20733;BMP180;10527;52.124;5.196;2023-03-01T03:46:11;102929.00;;;11.20
20733;BMP180;10527;52.124;5.196;2023-03-01T03:48:42;102927.00;;;11.20
20733;BMP180;10527;52.124;5.196;2023-03-01T03:51:16;102925.00;;;11.10
20733;BMP180;10527;52.124;5.196;2023-03-01T03:53:46;102927.00;;;11.10
20733;BMP180;10527;52.124;5.196;2023-03-01T03:56:13;102930.00;;;11.10
20733;BMP180;10527;52.124;5.196;2023-03-01T03:58:40;102921.00;;;11.10
20733;BMP180;10527;52.124;5.196;2023-03-01T04:01:16;102919.00;;;11.10
20733;BMP180;10527;52.124;5.196;2023-03-01T04:03:45;102915.00;;;11.00
20733;BMP180;10527;52.124;5.196;2023-03-01T04:06:15;102919.00;;;11.00
20733;BMP180;10527;52.124;5.196;2023-03-01T04:08:45;102915.00;;;11.00
20733;BMP180;10527;52.124;5.196;2023-03-01T04:11:12;102932.00;;;11.00
20733;BMP180;10527;52.124;5.196;2023-03-01T04:14:09;102932.00;;;11.00
20733;BMP180;10527;52.124;5.196;2023-03-01T04:16:36;102919.00;;;10.90
20733;BMP180;10527;52.124;5.196;2023-03-01T04:19:03;102924.00;;;10.90
20733;BMP180;10527;52.124;5.196;2023-03-01T04:21:33;102928.00;;;10.90
20733;BMP180;10527;52.124;5.196;2023-03-01T04:24:03;102928.00;;;10.90
20733;BMP180;10527;52.124;5.196;2023-03-01T04:26:32;102922.00;;;10.90
20733;BMP180;10527;52.124;5.196;2023-03-01T04:28:59;102928.00;;;10.90
20733;BMP180;10527;52.124;5.196;2023-03-01T04:31:26;102932.00;;;10.80
20733;BMP180;10527;52.124;5.196;2023-03-01T04:33:55;102931.00;;;10.80
20733;BMP180;10527;52.124;5.196;2023-03-01T04:36:28;102932.00;;;10.80
20733;BMP180;10527;52.124;5.196;2023-03-01T04:38:56;102929.00;;;10.80
20733;BMP180;10527;52.124;5.196;2023-03-01T04:41:26;102928.00;;;10.80
20733;BMP180;10527;52.124;5.196;2023-03-01T04:43:53;102923.00;;;10.80
20733;BMP180;10527;52.124;5.196;2023-03-01T04:46:21;102924.00;;;10.70
20733;BMP180;10527;52.124;5.196;2023-03-01T04:48:55;102916.00;;;10.70
20733;BMP180;10527;52.124;5.196;2023-03-01T04:51:21;102921.00;;;10.70
20733;BMP180;10527;52.124;5.196;2023-03-01T04:53:49;102915.00;;;10.70
20733;BMP180;10527;52.124;5.196;2023-03-01T04:56:19;102910.00;;;10.70
20733;BMP180;10527;52.124;5.196;2023-03-01T04:58:46;102916.00;;;10.60
20733;BMP180;10527;52.124;5.196;2023-03-01T05:01:21;102902.00;;;10.60
20733;BMP180;10527;52.124;5.196;2023-03-01T05:03:52;102896.00;;;10.60
20733;BMP180;10527;52.124;5.196;2023-03-01T05:06:25;102901.00;;;10.60
20733;BMP180;10527;52.124;5.196;2023-03-01T05:08:52;102898.00;;;10.60
20733;BMP180;10527;52.124;5.196;2023-03-01T05:11:22;102890.00;;;10.60
20733;BMP180;10527;52.124;5.196;2023-03-01T05:13:49;102883.00;;;10.60
20733;BMP180;10527;52.124;5.196;2023-03-01T05:16:21;102883.00;;;10.50
20733;BMP180;10527;52.124;5.196;2023-03-01T05:18:48;102880.00;;;10.50
20733;BMP180;10527;52.124;5.196;2023-03-01T05:21:18;102872.00;;;10.50
20733;BMP180;10527;52.124;5.196;2023-03-01T05:23:45;102878.00;;;10.50
20733;BMP180;10527;52.124;5.196;2023-03-01T05:26:16;102884.00;;;10.50
20733;BMP180;10527;52.124;5.196;2023-03-01T05:28:59;102864.00;;;10.50
20733;BMP180;10527;52.124;5.196;2023-03-01T05:31:27;102862.00;;;10.50
20733;BMP180;10527;52.124;5.196;2023-03-01T05:33:54;102855.00;;;10.40
20733;BMP180;10527;52.124;5.196;2023-03-01T05:36:21;102854.00;;;10.40
20733;BMP180;10527;52.124;5.196;2023-03-01T05:38:48;102855.00;;;10.40
20733;BMP180;10527;52.124;5.196;2023-03-01T05:41:18;102857.00;;;10.40
20733;BMP180;10527;52.124;5.196;2023-03-01T05:43:47;102843.00;;;10.40
20733;BMP180;10527;52.124;5.196;2023-03-01T05:46:14;102852.00;;;10.40
20733;BMP180;10527;52.124;5.196;2023-03-01T05:48:41;102852.00;;;10.40
20733;BMP180;10527;52.124;5.196;2023-03-01T05:51:08;102846.00;;;10.40
20733;BMP180;10527;52.124;5.196;2023-03-01T05:53:35;102840.00;;;10.40
20733;BMP180;10527;52.124;5.196;2023-03-01T05:56:05;102844.00;;;10.40
20733;BMP180;10527;52.124;5.196;2023-03-01T05:58:32;102842.00;;;10.30
20733;BMP180;10527;52.124;5.196;2023-03-01T06:00:59;102839.00;;;10.30
20733;BMP180;10527;52.124;5.196;2023-03-01T06:03:26;102836.00;;;10.30
20733;BMP180;10527;52.124;5.196;2023-03-01T06:06:00;102834.00;;;10.30
20733;BMP180;10527;52.124;5.196;2023-03-01T06:08:29;102841.00;;;10.30
20733;BMP180;10527;52.124;5.196;2023-03-01T06:10:56;102841.00;;;10.30
20733;BMP180;10527;52.124;5.196;2023-03-01T06:13:24;102839.00;;;10.30
20733;BMP180;10527;52.124;5.196;2023-03-01T06:15:51;102836.00;;;10.30
20733;BMP180;10527;52.124;5.196;2023-03-01T06:18:18;102835.00;;;10.30
20733;BMP180;10527;52.124;5.196;2023-03-01T06:20:55;102838.00;;;10.30
20733;BMP180;10527;52.124;5.196;2023-03-01T06:23:23;102844.00;;;10.20
20733;BMP180;10527;52.124;5.196;2023-03-01T06:25:50;102841.00;;;10.20
20733;BMP180;10527;52.124;5.196;2023-03-01T06:28:17;102844.00;;;10.20
20733;BMP180;10527;52.124;5.196;2023-03-01T06:30:47;102849.00;;;10.20
20733;BMP180;10527;52.124;5.196;2023-03-01T06:33:21;102857.00;;;10.20
20733;BMP180;10527;52.124;5.196;2023-03-01T06:35:50;102850.00;;;10.20
20733;BMP180;10527;52.124;5.196;2023-03-01T06:38:20;102849.00;;;10.20
20733;BMP180;10527;52.124;5.196;2023-03-01T06:40:53;102843.00;;;10.20
20733;BMP180;10527;52.124;5.196;2023-03-01T06:43:22;102851.00;;;10.20
20733;BMP180;10527;52.124;5.196;2023-03-01T06:45:50;102835.00;;;10.10
20733;BMP180;10527;52.124;5.196;2023-03-01T06:48:17;102843.00;;;10.20
20733;BMP180;10527;52.124;5.196;2023-03-01T06:50:44;102846.00;;;10.10
20733;BMP180;10527;52.124;5.196;2023-03-01T06:53:10;102844.00;;;10.10
20733;BMP180;10527;52.124;5.196;2023-03-01T06:55:41;102852.00;;;10.10
20733;BMP180;10527;52.124;5.196;2023-03-01T06:58:09;102848.00;;;10.10
20733;BMP180;10527;52.124;5.196;2023-03-01T07:00:36;102852.00;;;10.10
20733;BMP180;10527;52.124;5.196;2023-03-01T07:03:05;102848.00;;;10.20
20733;BMP180;10527;52.124;5.196;2023-03-01T07:05:34;102843.00;;;10.10
20733;BMP180;10527;52.124;5.196;2023-03-01T07:08:01;102845.00;;;10.10
20733;BMP180;10527;52.124;5.196;2023-03-01T07:10:28;102840.00;;;10.20
20733;BMP180;10527;52.124;5.196;2023-03-01T07:13:00;102837.00;;;10.20
20733;BMP180;10527;52.124;5.196;2023-03-01T07:15:27;102842.00;;;10.20
20733;BMP180;10527;52.124;5.196;2023-03-01T07:17:56;102844.00;;;10.20
20733;BMP180;10527;52.124;5.196;2023-03-01T07:20:23;102845.00;;;10.20
20733;BMP180;10527;52.124;5.196;2023-03-01T07:22:53;102844.00;;;10.20
20733;BMP180;10527;52.124;5.196;2023-03-01T07:25:20;102850.00;;;10.20
20733;BMP180;10527;52.124;5.196;2023-03-01T07:27:52;102853.00;;;10.20
20733;BMP180;10527;52.124;5.196;2023-03-01T07:30:20;102856.00;;;10.20
20733;BMP180;10527;52.124;5.196;2023-03-01T07:32:47;102861.00;;;10.30
20733;BMP180;10527;52.124;5.196;2023-03-01T07:35:15;102860.00;;;10.30
20733;BMP180;10527;52.124;5.196;2023-03-01T07:37:43;102860.00;;;10.30
20733;BMP180;10527;52.124;5.196;2023-03-01T07:40:11;102860.00;;;10.30
20733;BMP180;10527;52.124;5.196;2023-03-01T07:42:38;102863.00;;;10.30
20733;BMP180;10527;52.124;5.196;2023-03-01T07:45:06;102859.00;;;10.40
20733;BMP180;10527;52.124;5.196;2023-03-01T07:47:33;102860.00;;;10.40
20733;BMP180;10527;52.124;5.196;2023-03-01T07:50:04;102860.00;;;10.40
20733;BMP180;10527;52.124;5.196;2023-03-01T07:52:34;102868.00;;;10.40
20733;BMP180;10527;52.124;5.196;2023-03-01T07:55:01;102865.00;;;10.40
20733;BMP180;10527;52.124;5.196;2023-03-01T07:57:30;102862.00;;;10.40
20733;BMP180;10527;52.124;5.196;2023-03-01T07:59:58;102867.00;;;10.50
20733;BMP180;10527;52.124;5.196;2023-03-01T08:02:28;102864.00;;;10.50
20733;BMP180;10527;52.124;5.196;2023-03-01T08:04:54;102871.00;;;10.50
20733;BMP180;10527;52.124;5.196;2023-03-01T08:07:21;102869.00;;;10.50
20733;BMP180;10527;52.124;5.196;2023-03-01T08:09:48;102871.00;;;10.50
20733;BMP180;10527;52.124;5.196;2023-03-01T08:12:15;102871.00;;;10.60
20733;BMP180;10527;52.124;5.196;2023-03-01T08:14:43;102871.00;;;10.60
20733;BMP180;10527;52.124;5.196;2023-03-01T08:17:14;102871.00;;;10.60
20733;BMP180;10527;52.124;5.196;2023-03-01T08:19:42;102864.00;;;10.70
20733;BMP180;10527;52.124;5.196;2023-03-01T08:22:09;102866.00;;;10.70
20733;BMP180;10527;52.124;5.196;2023-03-01T08:24:39;102861.00;;;10.70
20733;BMP180;10527;52.124;5.196;2023-03-01T08:27:05;102863.00;;;10.70
20733;BMP180;10527;52.124;5.196;2023-03-01T08:29:34;102858.00;;;10.80
20733;BMP180;10527;52.124;5.196;2023-03-01T08:32:01;102855.00;;;10.80
20733;BMP180;10527;52.124;5.196;2023-03-01T08:34:28;102865.00;;;10.80
20733;BMP180;10527;52.124;5.196;2023-03-01T08:36:55;102856.00;;;10.90
20733;BMP180;10527;52.124;5.196;2023-03-01T08:39:22;102855.00;;;10.90
20733;BMP180;10527;52.124;5.196;2023-03-01T08:41:49;102850.00;;;10.90
20733;BMP180;10527;52.124;5.196;2023-03-01T08:44:16;102857.00;;;10.90
20733;BMP180;10527;52.124;5.196;2023-03-01T08:46:48;102859.00;;;11.00
20733;BMP180;10527;52.124;5.196;2023-03-01T08:49:18;102848.00;;;11.00
20733;BMP180;10527;52.124;5.196;2023-03-01T08:51:48;102844.00;;;11.00
20733;BMP180;10527;52.124;5.196;2023-03-01T08:54:20;102851.00;;;11.10
20733;BMP180;10527;52.124;5.196;2023-03-01T08:56:47;102849.00;;;11.20
20733;BMP180;10527;52.124;5.196;2023-03-01T08:59:16;102841.00;;;11.20
20733;BMP180;10527;52.124;5.196;2023-03-01T09:01:44;102840.00;;;11.30
20733;BMP180;10527;52.124;5.196;2023-03-01T09:04:12;102841.00;;;11.30
20733;BMP180;10527;52.124;5.196;2023-03-01T09:06:40;102838.00;;;11.40
20733;BMP180;10527;52.124;5.196;2023-03-01T09:09:17;102836.00;;;11.60
20733;BMP180;10527;52.124;5.196;2023-03-01T09:11:45;102833.00;;;11.90
20733;BMP180;10527;52.124;5.196;2023-03-01T09:14:16;102822.00;;;12.40
20733;BMP180;10527;52.124;5.196;2023-03-01T09:16:43;102814.00;;;12.90
20733;BMP180;10527;52.124;5.196;2023-03-01T09:19:10;102815.00;;;13.60
20733;BMP180;10527;52.124;5.196;2023-03-01T09:21:37;102809.00;;;14.30
20733;BMP180;10527;52.124;5.196;2023-03-01T09:24:13;102805.00;;;15.00
20733;BMP180;10527;52.124;5.196;2023-03-01T09:26:41;102808.00;;;15.70
20733;BMP180;10527;52.124;5.196;2023-03-01T09:29:08;102801.00;;;16.30
20733;BMP180;10527;52.124;5.196;2023-03-01T09:31:36;102800.00;;;16.90
20733;BMP180;10527;52.124;5.196;2023-03-01T09:34:06;102807.00;;;17.30
20733;BMP180;10527;52.124;5.196;2023-03-01T09:36:34;102815.00;;;17.70
20733;BMP180;10527;52.124;5.196;2023-03-01T09:39:02;102803.00;;;18.10
20733;BMP180;10527;52.124;5.196;2023-03-01T09:41:47;102796.00;;;18.50
20733;BMP180;10527;52.124;5.196;2023-03-01T09:44:35;102796.00;;;18.80
20733;BMP180;10527;52.124;5.196;2023-03-01T09:47:03;102802.00;;;19.00
20733;BMP180;10527;52.124;5.196;2023-03-01T09:49:35;102789.00;;;19.30
20733;BMP180;10527;52.124;5.196;2023-03-01T09:54:43;102800.00;;;19.70
20733;BMP180;10527;52.124;5.196;2023-03-01T10:00:21;102801.00;;;19.90
20733;BMP180;10527;52.124;5.196;2023-03-01T10:03:01;102803.00;;;20.00
20733;BMP180;10527;52.124;5.196;2023-03-01T10:10:58;102794.00;;;19.90
20733;BMP180;10527;52.124;5.196;2023-03-01T10:14:04;102798.00;;;19.90
20733;BMP180;10527;52.124;5.196;2023-03-01T10:17:03;102801.00;;;19.80
20733;BMP180;10527;52.124;5.196;2023-03-01T10:22:28;102790.00;;;19.80
20733;BMP180;10527;52.124;5.196;2023-03-01T10:24:59;102791.00;;;19.70
20733;BMP180;10527;52.124;5.196;2023-03-01T10:27:52;102784.00;;;19.60
20733;BMP180;10527;52.124;5.196;2023-03-01T10:30:39;102776.00;;;19.60
20733;BMP180;10527;52.124;5.196;2023-03-01T10:33:21;102774.00;;;19.50
20733;BMP180;10527;52.124;5.196;2023-03-01T10:35:48;102780.00;;;19.40
20733;BMP180;10527;52.124;5.196;2023-03-01T10:38:17;102767.00;;;19.30
20733;BMP180;10527;52.124;5.196;2023-03-01T10:40:57;102776.00;;;19.30
20733;BMP180;10527;52.124;5.196;2023-03-01T10:43:47;102762.00;;;19.10
20733;BMP180;10527;52.124;5.196;2023-03-01T10:46:36;102758.00;;;19.00
20733;BMP180;10527;52.124;5.196;2023-03-01T10:49:23;102768.00;;;18.90
20733;BMP180;10527;52.124;5.196;2023-03-01T10:51:53;102769.00;;;18.70
20733;BMP180;10527;52.124;5.196;2023-03-01T10:54:28;102773.00;;;18.50
20733;BMP180;10527;52.124;5.196;2023-03-01T10:57:02;102750.00;;;18.40
20733;BMP180;10527;52.124;5.196;2023-03-01T10:59:36;102739.00;;;18.30
20733;BMP180;10527;52.124;5.196;2023-03-01T11:08:02;102727.00;;;18.00
20733;BMP180;10527;52.124;5.196;2023-03-01T11:10:35;102715.00;;;17.90
20733;BMP180;10527;52.124;5.196;2023-03-01T11:13:16;102716.00;;;17.80
20733;BMP180;10527;52.124;5.196;2023-03-01T11:16:02;102714.00;;;17.70
20733;BMP180;10527;52.124;5.196;2023-03-01T11:18:31;102710.00;;;17.70
20733;BMP180;10527;52.124;5.196;2023-03-01T11:21:15;102694.00;;;17.60
20733;BMP180;10527;52.124;5.196;2023-03-01T11:23:45;102703.00;;;17.50
20733;BMP180;10527;52.124;5.196;2023-03-01T11:26:18;102696.00;;;17.50
20733;BMP180;10527;52.124;5.196;2023-03-01T11:28:53;102696.00;;;17.40
20733;BMP180;10527;52.124;5.196;2023-03-01T11:31:24;102696.00;;;17.40
20733;BMP180;10527;52.124;5.196;2023-03-01T11:34:16;102693.00;;;17.40
20733;BMP180;10527;52.124;5.196;2023-03-01T11:36:59;102696.00;;;17.40
20733;BMP180;10527;52.124;5.196;2023-03-01T11:45:16;102700.00;;;17.40
20733;BMP180;10527;52.124;5.196;2023-03-01T11:48:36;102683.00;;;17.50
20733;BMP180;10527;52.124;5.196;2023-03-01T11:51:48;102680.00;;;17.50
20733;BMP180;10527;52.124;5.196;2023-03-01T11:54:59;102664.00;;;17.50
20733;BMP180;10527;52.124;5.196;2023-03-01T12:06:57;102676.00;;;17.50
20733;BMP180;10527;52.124;5.196;2023-03-01T12:09:59;102679.00;;;17.50
20733;BMP180;10527;52.124;5.196;2023-03-01T12:15:54;102673.00;;;17.60
20733;BMP180;10527;52.124;5.196;2023-03-01T12:24:22;102666.00;;;17.90
20733;BMP180;10527;52.124;5.196;2023-03-01T12:33:02;102654.00;;;18.10
20733;BMP180;10527;52.124;5.196;2023-03-01T12:36:14;102663.00;;;18.10
20733;BMP180;10527;52.124;5.196;2023-03-01T12:42:21;102655.00;;;18.20
20733;BMP180;10527;52.124;5.196;2023-03-01T12:50:47;102647.00;;;18.30
20733;BMP180;10527;52.124;5.196;2023-03-01T12:53:31;102630.00;;;18.40
20733;BMP180;10527;52.124;5.196;2023-03-01T12:56:04;102632.00;;;18.40
20733;BMP180;10527;52.124;5.196;2023-03-01T12:59:01;102613.00;;;18.50
20733;BMP180;10527;52.124;5.196;2023-03-01T13:01:56;102620.00;;;18.50
20733;BMP180;10527;52.124;5.196;2023-03-01T13:07:22;102611.00;;;18.50
20733;BMP180;10527;52.124;5.196;2023-03-01T13:17:53;102606.00;;;18.70
20733;BMP180;10527;52.124;5.196;2023-03-01T13:20:34;102604.00;;;18.70
20733;BMP180;10527;52.124;5.196;2023-03-01T13:33:59;102569.00;;;18.80
20733;BMP180;10527;52.124;5.196;2023-03-01T13:41:53;102562.00;;;18.90
20733;BMP180;10527;52.124;5.196;2023-03-01T13:44:34;102555.00;;;19.00
20733;BMP180;10527;52.124;5.196;2023-03-01T13:47:15;102557.00;;;19.00
20733;BMP180;10527;52.124;5.196;2023-03-01T13:50:03;102547.00;;;19.00
20733;BMP180;10527;52.124;5.196;2023-03-01T13:53:16;102549.00;;;19.00
20733;BMP180;10527;52.124;5.196;2023-03-01T13:55:52;102545.00;;;19.00
20733;BMP180;10527;52.124;5.196;2023-03-01T13:58:27;102551.00;;;19.00
20733;BMP180;10527;52.124;5.196;2023-03-01T14:01:03;102538.00;;;19.10
20733;BMP180;10527;52.124;5.196;2023-03-01T14:03:33;102537.00;;;19.10
20733;BMP180;10527;52.124;5.196;2023-03-01T14:06:15;102526.00;;;19.20
20733;BMP180;10527;52.124;5.196;2023-03-01T14:08:52;102520.00;;;19.20
20733;BMP180;10527;52.124;5.196;2023-03-01T14:14:50;102520.00;;;19.30
20733;BMP180;10527;52.124;5.196;2023-03-01T14:20:31;102520.00;;;19.30
20733;BMP180;10527;52.124;5.196;2023-03-01T14:23:09;102503.00;;;19.30
20733;BMP180;10527;52.124;5.196;2023-03-01T14:25:46;102505.00;;;19.30
20733;BMP180;10527;52.124;5.196;2023-03-01T14:28:37;102496.00;;;19.40
20733;BMP180;10527;52.124;5.196;2023-03-01T14:31:39;102506.00;;;19.40
20733;BMP180;10527;52.124;5.196;2023-03-01T14:34:24;102482.00;;;19.40
20733;BMP180;10527;52.124;5.196;2023-03-01T14:36:54;102482.00;;;19.40
20733;BMP180;10527;52.124;5.196;2023-03-01T14:39:25;102480.00;;;19.40
20733;BMP180;10527;52.124;5.196;2023-03-01T14:41:53;102472.00;;;19.50
20733;BMP180;10527;52.124;5.196;2023-03-01T14:44:23;102475.00;;;19.50
20733;BMP180;10527;52.124;5.196;2023-03-01T14:46:57;102478.00;;;19.60
20733;BMP180;10527;52.124;5.196;2023-03-01T14:49:29;102477.00;;;19.60
20733;BMP180;10527;52.124;5.196;2023-03-01T14:52:20;102488.00;;;19.60
20733;BMP180;10527;52.124;5.196;2023-03-01T14:54:51;102492.00;;;19.60
20733;BMP180;10527;52.124;5.196;2023-03-01T14:57:25;102486.00;;;19.60
20733;BMP180;10527;52.124;5.196;2023-03-01T14:59:55;102486.00;;;19.60
20733;BMP180;10527;52.124;5.196;2023-03-01T15:02:26;102478.00;;;19.60
20733;BMP180;10527;52.124;5.196;2023-03-01T15:05:01;102465.00;;;19.60
20733;BMP180;10527;52.124;5.196;2023-03-01T15:07:34;102476.00;;;19.60
20733;BMP180;10527;52.124;5.196;2023-03-01T15:10:11;102474.00;;;19.70
20733;BMP180;10527;52.124;5.196;2023-03-01T15:12:41;102460.00;;;19.70
20733;BMP180;10527;52.124;5.196;2023-03-01T15:15:35;102468.00;;;19.70
20733;BMP180;10527;52.124;5.196;2023-03-01T15:18:14;102468.00;;;19.70
20733;BMP180;10527;52.124;5.196;2023-03-01T15:20:42;102455.00;;;19.70
20733;BMP180;10527;52.124;5.196;2023-03-01T15:23:19;102460.00;;;19.70
20733;BMP180;10527;52.124;5.196;2023-03-01T15:25:52;102454.00;;;19.70
20733;BMP180;10527;52.124;5.196;2023-03-01T15:28:34;102450.00;;;19.70
20733;BMP180;10527;52.124;5.196;2023-03-01T15:31:23;102451.00;;;19.70
20733;BMP180;10527;52.124;5.196;2023-03-01T15:36:54;102446.00;;;19.60
20733;BMP180;10527;52.124;5.196;2023-03-01T15:39:30;102438.00;;;19.60
20733;BMP180;10527;52.124;5.196;2023-03-01T15:41:59;102451.00;;;19.60
20733;BMP180;10527;52.124;5.196;2023-03-01T15:44:32;102442.00;;;19.60
20733;BMP180;10527;52.124;5.196;2023-03-01T15:47:29;102440.00;;;19.60
20733;BMP180;10527;52.124;5.196;2023-03-01T15:49:58;102454.00;;;19.50
20733;BMP180;10527;52.124;5.196;2023-03-01T15:52:41;102444.00;;;19.50
20733;BMP180;10527;52.124;5.196;2023-03-01T15:57:49;102451.00;;;19.40
20733;BMP180;10527;52.124;5.196;2023-03-01T16:00:17;102435.00;;;19.40
20733;BMP180;10527;52.124;5.196;2023-03-01T16:02:48;102444.00;;;19.40
20733;BMP180;10527;52.124;5.196;2023-03-01T16:05:26;102441.00;;;19.30
20733;BMP180;10527;52.124;5.196;2023-03-01T16:07:54;102447.00;;;19.30
20733;BMP180;10527;52.124;5.196;2023-03-01T16:10:24;102435.00;;;19.30
20733;BMP180;10527;52.124;5.196;2023-03-01T16:12:54;102430.00;;;19.30
20733;BMP180;10527;52.124;5.196;2023-03-01T16:15:33;102445.00;;;19.20
20733;BMP180;10527;52.124;5.196;2023-03-01T16:18:05;102434.00;;;19.10